createdAt,value
2022-09-21T00:01:26.107Z,102094.19
2022-09-21T00:04:02.117Z,102103.31
2022-09-21T00:06:31.902Z,102107.97
2022-09-21T00:08:58.862Z,102099.38
2022-09-21T00:11:29.566Z,102105.69
2022-09-21T00:14:04.463Z,102098.69
2022-09-21T00:16:32.104Z,102095.91
2022-09-21T00:19:00.212Z,102095.81
2022-09-21T00:21:28.148Z,102101.34
2022-09-21T00:23:55.460Z,102112.13
2022-09-21T00:26:24.814Z,102095.28
2022-09-21T00:28:57.539Z,102101.66
2022-09-21T00:31:25.806Z,102108.78
2022-09-21T00:33:53.592Z,102100.03
2022-09-21T00:36:23.862Z,102107.22
2022-09-21T00:38:54.572Z,102101.06
2022-09-21T00:41:21.677Z,102102.06
2022-09-21T00:44:22.169Z,102102.06
2022-09-21T00:46:51.783Z,102103.94
2022-09-21T00:49:20.255Z,102107.63
2022-09-21T00:51:48.631Z,102106.03
2022-09-21T00:54:25.184Z,102109.78
2022-09-21T00:56:54.669Z,102107.34
2022-09-21T00:59:23.966Z,102102.25
2022-09-21T01:01:53.832Z,102113.16
2022-09-21T01:04:21.547Z,102108.75
2022-09-21T01:06:48.943Z,102110.59
2022-09-21T01:09:17.036Z,102113.56
2022-09-21T01:12:19.196Z,102128.81
2022-09-21T01:15:09.974Z,102120.91
2022-09-21T01:18:22.423Z,102117.34
2022-09-21T01:21:16.347Z,102114.78
2022-09-21T01:24:09.568Z,102115.81
2022-09-21T01:27:22.540Z,102120.53
2022-09-21T01:30:02.226Z,102117.13
2022-09-21T01:32:36.035Z,102119.94
2022-09-21T01:35:08.845Z,102115.59
2022-09-21T01:37:46.593Z,102117.50
2022-09-21T01:40:27.907Z,102120.16
2022-09-21T01:42:59.310Z,102123.84
2022-09-21T01:45:37.278Z,102130.09
2022-09-21T01:48:05.191Z,102133.81
2022-09-21T01:50:40.961Z,102131.13
2022-09-21T01:53:23.087Z,102136.50
2022-09-21T01:55:55.484Z,102136.75
2022-09-21T01:58:38.676Z,102131.50
2022-09-21T02:01:09.529Z,102130.66
2022-09-21T02:03:45.283Z,102126.34
2022-09-21T02:06:13.453Z,102129.91
2022-09-21T02:08:40.667Z,102124.59
2022-09-21T02:11:08.019Z,102128.22
2022-09-21T02:13:41.657Z,102141.66
2022-09-21T02:16:48.188Z,102139.03
2022-09-21T02:19:22.234Z,102136.47
2022-09-21T02:21:54.656Z,102146.44
2022-09-21T02:24:47.635Z,102136.84
2022-09-21T02:27:55.277Z,102136.06
2022-09-21T02:30:25.361Z,102142.34
2022-09-21T02:33:11.614Z,102146.00
2022-09-21T02:35:57.527Z,102140.75
2022-09-21T02:38:39.799Z,102140.84
2022-09-21T02:41:48.394Z,102132.09
2022-09-21T02:44:29.137Z,102136.59
2022-09-21T02:47:09.198Z,102133.09
2022-09-21T02:49:42.219Z,102132.25
2022-09-21T02:52:15.150Z,102139.53
2022-09-21T02:54:47.773Z,102136.13
2022-09-21T02:57:18.629Z,102145.88
2022-09-21T02:59:45.806Z,102135.25
2022-09-21T03:02:13.147Z,102134.38
2022-09-21T03:04:47.652Z,102130.06
2022-09-21T03:07:16.733Z,102137.22
2022-09-21T03:09:43.983Z,102134.72
2022-09-21T03:12:11.064Z,102139.13
2022-09-21T03:14:37.918Z,102138.34
2022-09-21T03:17:04.974Z,102138.38
2022-09-21T03:19:31.909Z,102135.69
2022-09-21T03:21:59.698Z,102136.59
2022-09-21T03:24:45.060Z,102136.63
2022-09-21T03:27:16.613Z,102140.31
2022-09-21T03:29:43.807Z,102140.44
2022-09-21T03:32:11.360Z,102138.72
2022-09-21T03:34:38.515Z,102142.28
2022-09-21T03:37:07.756Z,102143.22
2022-09-21T03:39:35.119Z,102137.19
2022-09-21T03:42:02.598Z,102146.13
2022-09-21T03:44:29.619Z,102148.97
2022-09-21T03:46:58.002Z,102155.16
2022-09-21T03:49:25.171Z,102155.25
2022-09-21T03:51:52.050Z,102148.22
2022-09-21T03:54:19.125Z,102152.59
2022-09-21T03:56:46.170Z,102154.34
2022-09-21T03:59:14.342Z,102150.88
2022-09-21T04:01:42.396Z,102149.16
2022-09-21T04:04:10.260Z,102144.94
2022-09-21T04:06:37.197Z,102151.25
2022-09-21T04:09:04.248Z,102155.78
2022-09-21T04:11:33.228Z,102154.97
2022-09-21T04:14:00.546Z,102154.97
2022-09-21T04:16:28.366Z,102142.63
2022-09-21T04:18:55.578Z,102151.47
2022-09-21T04:21:22.839Z,102153.31
2022-09-21T04:23:50.108Z,102151.63
2022-09-21T04:26:27.333Z,102161.47
2022-09-21T04:28:55.339Z,102157.13
2022-09-21T04:31:24.391Z,102159.94
2022-09-21T04:33:53.578Z,102163.69
2022-09-21T04:36:23.374Z,102168.31
2022-09-21T04:38:50.792Z,102165.75
2022-09-21T04:41:18.637Z,102157.91
2022-09-21T04:43:47.981Z,102164.09
2022-09-21T04:46:18.437Z,102167.69
2022-09-21T04:48:46.534Z,102169.50
2022-09-21T04:51:16.212Z,102165.09
2022-09-21T04:53:44.718Z,102172.19
2022-09-21T04:56:14.963Z,102166.06
2022-09-21T04:58:42.617Z,102169.88
2022-09-21T05:01:10.243Z,102180.59
2022-09-21T05:03:37.342Z,102170.88
2022-09-21T05:06:04.651Z,102178.97
2022-09-21T05:08:50.434Z,102183.56
2022-09-21T05:11:19.098Z,102190.69
2022-09-21T05:13:47.604Z,102182.72
2022-09-21T05:16:16.107Z,102174.78
2022-09-21T05:18:43.808Z,102188.06
2022-09-21T05:21:13.183Z,102183.63
2022-09-21T05:23:40.211Z,102185.34
2022-09-21T05:26:07.499Z,102190.66
2022-09-21T05:28:39.691Z,102186.22
2022-09-21T05:31:27.760Z,102185.31
2022-09-21T05:34:34.253Z,102192.34
2022-09-21T05:37:23.514Z,102201.19
2022-09-21T05:39:50.756Z,102194.84
2022-09-21T05:42:17.906Z,102204.66
2022-09-21T05:44:45.231Z,102204.50
2022-09-21T05:47:38.643Z,102212.28
2022-09-21T05:50:39.181Z,102214.78
2022-09-21T05:53:44.131Z,102218.22
2022-09-21T05:56:11.100Z,102219.91
2022-09-21T05:59:11.812Z,102217.81
2022-09-21T06:02:12.017Z,102206.91
2022-09-21T06:04:39.339Z,102216.13
2022-09-21T06:07:06.258Z,102221.00
2022-09-21T06:09:33.336Z,102216.09
2022-09-21T06:12:00.222Z,102215.47
2022-09-21T06:14:27.341Z,102219.25
2022-09-21T06:16:54.266Z,102226.53
2022-09-21T06:19:21.281Z,102219.41
2022-09-21T06:21:48.180Z,102220.53
2022-09-21T06:24:15.105Z,102217.16
2022-09-21T06:26:42.943Z,102218.19
2022-09-21T06:29:09.900Z,102216.50
2022-09-21T06:31:37.183Z,102215.66
2022-09-21T06:34:04.126Z,102215.66
2022-09-21T06:36:31.141Z,102219.06
2022-09-21T06:38:58.125Z,102218.09
2022-09-21T06:41:25.293Z,102208.47
2022-09-21T06:43:58.139Z,102206.38
2022-09-21T06:46:25.291Z,102215.09
2022-09-21T06:48:52.152Z,102206.91
2022-09-21T06:51:20.926Z,102210.31
2022-09-21T06:53:48.631Z,102218.16
2022-09-21T06:56:16.058Z,102214.63
2022-09-21T06:58:42.961Z,102209.25
2022-09-21T07:01:13.263Z,102213.03
2022-09-21T07:03:42.132Z,102215.25
2022-09-21T07:06:15.652Z,102214.34
2022-09-21T07:11:31.045Z,102218.63
2022-09-21T07:13:58.569Z,102222.75
2022-09-21T07:16:25.541Z,102218.75
2022-09-21T07:18:52.441Z,102219.16
2022-09-21T07:21:19.662Z,102219.97
2022-09-21T07:23:46.519Z,102226.84
2022-09-21T07:26:14.223Z,102219.88
2022-09-21T07:28:41.602Z,102222.84
2022-09-21T07:31:16.912Z,102221.56
2022-09-21T07:33:47.058Z,102221.03
2022-09-21T07:36:14.449Z,102225.09
2022-09-21T07:38:44.143Z,102224.66
2022-09-21T07:41:14.743Z,102217.56
2022-09-21T07:43:41.934Z,102228.06
2022-09-21T07:46:12.454Z,102227.81
2022-09-21T07:48:39.773Z,102231.00
2022-09-21T07:51:11.072Z,102224.34
2022-09-21T07:53:40.887Z,102230.25
2022-09-21T07:56:12.469Z,102226.16
2022-09-21T07:58:58.830Z,102222.69
2022-09-21T08:01:27.572Z,102224.53
2022-09-21T08:03:57.719Z,102216.50
2022-09-21T08:06:27.926Z,102223.94
2022-09-21T08:08:57.656Z,102228.75
2022-09-21T08:11:27.566Z,102228.97
2022-09-21T08:14:04.310Z,102216.63
2022-09-21T08:16:33.900Z,102222.59
2022-09-21T08:19:02.199Z,102224.66
2022-09-21T08:21:29.127Z,102221.81
2022-09-21T08:23:56.009Z,102218.44
2022-09-21T08:26:23.843Z,102230.31
2022-09-21T08:28:53.185Z,102225.41
2022-09-21T08:31:24.407Z,102233.41
2022-09-21T08:33:52.239Z,102230.13
2022-09-21T08:36:19.758Z,102232.16
2022-09-21T08:38:46.885Z,102230.03
2022-09-21T08:41:38.676Z,102236.06
2022-09-21T08:44:24.196Z,102229.66
2022-09-21T08:47:39.094Z,102225.34
2022-09-21T08:50:37.861Z,102219.09
2022-09-21T08:53:12.845Z,102229.47
2022-09-21T08:55:39.807Z,102230.91
2022-09-21T08:58:25.837Z,102227.31
2022-09-21T09:01:19.887Z,102231.50
2022-09-21T09:04:46.147Z,102220.94
2022-09-21T09:08:03.948Z,102230.13
2022-09-21T09:10:39.560Z,102223.22
2022-09-21T09:13:09.284Z,102226.44
2022-09-21T09:15:57.477Z,102230.91
2022-09-21T09:18:43.936Z,102224.75
2022-09-21T09:21:30.536Z,102227.22
2022-09-21T09:24:37.095Z,102232.59
2022-09-21T09:27:15.324Z,102222.72
2022-09-21T09:30:03.216Z,102223.66
2022-09-21T09:32:44.709Z,102231.59
2022-09-21T09:35:33.335Z,102223.19
2022-09-21T09:38:34.764Z,102223.97
2022-09-21T09:41:45.102Z,102223.25
2022-09-21T09:44:35.875Z,102218.19
2022-09-21T09:47:39.282Z,102222.94
2022-09-21T09:50:27.729Z,102213.38
2022-09-21T09:53:05.044Z,102225.06
2022-09-21T09:55:43.663Z,102225.53
2022-09-21T09:58:26.407Z,102220.19
2022-09-21T10:00:57.619Z,102217.16
2022-09-21T10:03:28.206Z,102213.56
2022-09-21T10:05:55.678Z,102214.00
2022-09-21T10:08:44.626Z,102221.09
2022-09-21T10:11:14.547Z,102222.19
2022-09-21T10:13:48.282Z,102216.91
2022-09-21T10:16:21.769Z,102211.97
2022-09-21T10:18:56.508Z,102211.16
2022-09-21T10:21:27.216Z,102220.50
2022-09-21T10:24:30.049Z,102213.72
2022-09-21T10:27:11.655Z,102211.91
2022-09-21T10:29:48.773Z,102208.53
2022-09-21T10:32:18.468Z,102210.25
2022-09-21T10:35:16.312Z,102201.16
2022-09-21T10:37:48.388Z,102206.00
2022-09-21T10:40:21.419Z,102203.59
2022-09-21T10:42:51.670Z,102201.56
2022-09-21T10:45:21.998Z,102198.53
2022-09-21T10:48:06.186Z,102213.81
2022-09-21T10:50:44.084Z,102212.72
2022-09-21T10:53:20.263Z,102208.78
2022-09-21T10:56:18.049Z,102205.38
2022-09-21T10:59:19.633Z,102201.97
2022-09-21T11:01:50.089Z,102202.56
2022-09-21T11:04:47.580Z,102199.44
2022-09-21T11:07:58.183Z,102201.47
2022-09-21T11:10:44.421Z,102202.06
2022-09-21T11:13:44.638Z,102191.09
2022-09-21T11:16:43.184Z,102192.94
2022-09-21T11:19:27.983Z,102195.50
2022-09-21T11:22:15.288Z,102201.44
2022-09-21T11:25:00.684Z,102199.75
2022-09-21T11:27:44.998Z,102191.31
2022-09-21T11:30:20.031Z,102194.53
2022-09-21T11:33:02.916Z,102190.06
2022-09-21T11:35:47.474Z,102190.09
2022-09-21T11:39:06.982Z,102186.84
2022-09-21T11:42:25.138Z,102190.34
2022-09-21T11:44:56.170Z,102182.72
2022-09-21T11:47:48.703Z,102186.34
2022-09-21T11:50:57.425Z,102182.47
2022-09-21T11:53:52.027Z,102185.91
2022-09-21T11:56:48.271Z,102180.69
2022-09-21T11:59:21.138Z,102184.28
2022-09-21T12:02:22.297Z,102177.59
2022-09-21T12:05:13.405Z,102170.09
2022-09-21T12:07:57.087Z,102168.19
2022-09-21T12:10:58.814Z,102174.63
2022-09-21T12:13:33.995Z,102166.38
2022-09-21T12:16:32.786Z,102169.34
2022-09-21T12:19:51.802Z,102169.31
2022-09-21T12:22:26.898Z,102157.94
2022-09-21T12:25:17.583Z,102158.09
2022-09-21T12:28:07.344Z,102159.13
2022-09-21T12:30:37.629Z,102150.34
2022-09-21T12:33:20.151Z,102153.59
2022-09-21T12:35:56.426Z,102154.91
2022-09-21T12:38:34.722Z,102151.97
2022-09-21T12:41:23.641Z,102146.09
2022-09-21T12:44:02.846Z,102152.19
2022-09-21T12:46:53.409Z,102141.50
2022-09-21T12:49:30.507Z,102140.34
2022-09-21T12:52:03.306Z,102139.00
2022-09-21T12:54:38.125Z,102136.78
2022-09-21T12:57:29.767Z,102120.28
2022-09-21T13:00:11.753Z,102129.66
2022-09-21T13:03:08.347Z,102127.66
2022-09-21T13:05:56.403Z,102124.56
2022-09-21T13:08:33.563Z,102129.81
2022-09-21T13:11:05.833Z,102128.25
2022-09-21T13:13:43.691Z,102126.69
2022-09-21T13:16:26.554Z,102126.38
2022-09-21T13:19:12.799Z,102127.50
2022-09-21T13:21:40.390Z,102121.53
2022-09-21T13:24:26.109Z,102119.94
2022-09-21T13:26:57.158Z,102111.03
2022-09-21T13:29:24.967Z,102113.34
2022-09-21T13:32:03.778Z,102115.31
2022-09-21T13:34:42.561Z,102113.38
2022-09-21T13:37:15.817Z,102116.13
2022-09-21T13:40:04.127Z,102110.66
2022-09-21T13:42:34.379Z,102104.81
2022-09-21T13:45:24.608Z,102109.44
2022-09-21T13:47:55.780Z,102098.03
2022-09-21T13:50:42.955Z,102106.22
2022-09-21T13:53:30.477Z,102097.56
2022-09-21T13:56:08.980Z,102092.28
2022-09-21T13:58:50.390Z,102089.94
2022-09-21T14:01:45.611Z,102090.03
2022-09-21T14:04:25.519Z,102091.28
2022-09-21T14:06:55.723Z,102088.88
2022-09-21T14:09:35.143Z,102090.34
2022-09-21T14:12:06.416Z,102077.47
2022-09-21T14:14:37.537Z,102085.63
2022-09-21T14:17:34.073Z,102086.84
2022-09-21T14:20:01.315Z,102085.25
2022-09-21T14:22:28.068Z,102092.69
2022-09-21T14:25:28.988Z,102085.03
2022-09-21T14:28:03.635Z,102082.34
2022-09-21T14:30:34.706Z,102076.16
2022-09-21T14:33:08.343Z,102080.81
2022-09-21T14:35:42.096Z,102075.03
2022-09-21T14:38:22.218Z,102078.00
2022-09-21T14:40:53.251Z,102070.28
2022-09-21T14:43:36.035Z,102069.44
2022-09-21T14:46:40.447Z,102063.72
2022-09-21T14:49:30.174Z,102062.56
2022-09-21T14:52:25.044Z,102067.78
2022-09-21T14:55:47.615Z,102061.38
2022-09-21T14:58:30.019Z,102061.16
2022-09-21T15:01:20.057Z,102061.06
2022-09-21T15:04:33.194Z,102052.34
2022-09-21T15:07:52.962Z,102054.88
2022-09-21T15:10:49.704Z,102058.88
2022-09-21T15:13:43.197Z,102054.16
2022-09-21T15:16:39.180Z,102043.88
2022-09-21T15:19:37.346Z,102044.84
2022-09-21T15:22:22.552Z,102045.03
2022-09-21T15:24:57.174Z,102047.84
2022-09-21T15:27:33.331Z,102054.84
2022-09-21T15:30:05.203Z,102042.25
2022-09-21T15:32:43.842Z,102037.66
2022-09-21T15:35:29.400Z,102039.44
2022-09-21T15:38:02.051Z,102032.66
2022-09-21T15:40:46.653Z,102028.72
2022-09-21T15:43:17.015Z,102037.97
2022-09-21T15:45:57.074Z,102042.19
2022-09-21T15:48:35.866Z,102033.81
2022-09-21T15:51:23.389Z,102030.69
2022-09-21T15:53:58.143Z,102035.38
2022-09-21T15:56:28.625Z,102033.09
2022-09-21T15:59:08.763Z,102032.47
2022-09-21T16:01:55.155Z,102034.00
2022-09-21T16:04:27.549Z,102042.72
2022-09-21T16:07:04.103Z,102039.72
2022-09-21T16:09:43.594Z,102029.69
2022-09-21T16:12:41.216Z,102036.88
2022-09-21T16:15:32.111Z,102036.03
2022-09-21T16:18:05.253Z,102048.44
2022-09-21T16:20:48.372Z,102038.25
2022-09-21T16:23:23.169Z,102044.47
2022-09-21T16:25:58.497Z,102046.75
2022-09-21T16:28:44.055Z,102038.88
2022-09-21T16:31:40.452Z,102037.97
2022-09-21T16:34:23.308Z,102038.16
2022-09-21T16:36:52.875Z,102038.44
2022-09-21T16:39:21.034Z,102032.97
2022-09-21T16:41:53.810Z,102038.16
2022-09-21T16:44:25.470Z,102031.72
2022-09-21T16:47:01.534Z,102042.97
2022-09-21T16:49:33.551Z,102048.44
2022-09-21T16:52:01.445Z,102035.75
2022-09-21T16:54:29.697Z,102036.84
2022-09-21T16:57:00.193Z,102038.44
2022-09-21T16:59:28.068Z,102032.91
2022-09-21T17:01:58.376Z,102040.75
2022-09-21T17:04:31.027Z,102039.22
2022-09-21T17:06:58.517Z,102037.88
2022-09-21T17:09:32.030Z,102040.25
2022-09-21T17:12:01.390Z,102039.72
2022-09-21T17:14:37.838Z,102047.25
2022-09-21T17:17:23.151Z,102053.44
2022-09-21T17:19:52.899Z,102038.50
2022-09-21T17:22:20.223Z,102039.56
2022-09-21T17:24:52.085Z,102038.00
2022-09-21T17:27:29.059Z,102042.41
2022-09-21T17:29:56.504Z,102043.44
2022-09-21T17:32:24.678Z,102041.47
2022-09-21T17:35:28.765Z,102044.22
2022-09-21T17:37:55.802Z,102051.41
2022-09-21T17:40:24.125Z,102046.31
2022-09-21T17:42:52.779Z,102050.28
2022-09-21T17:45:35.974Z,102048.66
2022-09-21T17:48:03.606Z,102045.97
2022-09-21T17:50:31.580Z,102044.97
2022-09-21T17:53:17.867Z,102047.66
2022-09-21T17:55:54.339Z,102050.22
2022-09-21T17:58:45.447Z,102049.22
2022-09-21T18:01:36.253Z,102045.78
2022-09-21T18:04:04.712Z,102058.38
2022-09-21T18:06:32.351Z,102055.72
2022-09-21T18:08:59.717Z,102045.84
2022-09-21T18:11:47.879Z,102060.53
2022-09-21T18:14:35.761Z,102062.72
2022-09-21T18:17:45.017Z,102061.94
2022-09-21T18:21:02.386Z,102062.97
2022-09-21T18:24:13.588Z,102063.34
2022-09-21T18:26:44.446Z,102056.22
2022-09-21T18:29:39.345Z,102050.91
2022-09-21T18:32:36.381Z,102052.56
2022-09-21T18:35:14.958Z,102057.91
2022-09-21T18:38:12.941Z,102058.13
2022-09-21T18:40:55.759Z,102053.78
2022-09-21T18:43:28.533Z,102053.88
2022-09-21T18:46:15.479Z,102055.75
2022-09-21T18:49:13.379Z,102064.00
2022-09-21T18:51:57.488Z,102060.97
2022-09-21T18:54:27.477Z,102067.13
2022-09-21T18:56:55.502Z,102063.84
2022-09-21T18:59:23.090Z,102058.22
2022-09-21T19:01:50.816Z,102067.44
2022-09-21T19:04:19.191Z,102066.41
2022-09-21T19:07:00.737Z,102069.56
2022-09-21T19:09:56.849Z,102063.88
2022-09-21T19:13:09.355Z,102061.69
2022-09-21T19:16:00.275Z,102067.41
2022-09-21T19:18:46.404Z,102072.38
2022-09-21T19:21:30.605Z,102068.13
2022-09-21T19:24:39.138Z,102074.44
2022-09-21T19:27:37.035Z,102073.19
2022-09-21T19:30:17.105Z,102073.63
2022-09-21T19:32:53.017Z,102079.81
2022-09-21T19:35:25.988Z,102077.81
2022-09-21T19:37:56.229Z,102069.34
2022-09-21T19:40:27.311Z,102075.94
2022-09-21T19:43:32.926Z,102074.50
2022-09-21T19:46:27.277Z,102077.22
2022-09-21T19:49:01.443Z,102069.50
2022-09-21T19:51:50.599Z,102077.50
2022-09-21T19:54:40.620Z,102079.69
2022-09-21T19:57:37.790Z,102072.38
2022-09-21T20:00:09.187Z,102064.34
2022-09-21T20:03:14.123Z,102072.25
2022-09-21T20:05:57.098Z,102066.72
2022-09-21T20:09:11.561Z,102076.22
2022-09-21T20:11:51.047Z,102080.78
2022-09-21T20:14:37.645Z,102073.41
2022-09-21T20:17:09.860Z,102073.59
2022-09-21T20:19:57.138Z,102065.50
2022-09-21T20:22:35.840Z,102080.44
2022-09-21T20:25:09.161Z,102074.59
2022-09-21T20:27:53.339Z,102079.88
2022-09-21T20:30:26.635Z,102074.50
2022-09-21T20:33:03.529Z,102083.53
2022-09-21T20:35:31.058Z,102074.97
2022-09-21T20:38:02.248Z,102078.63
2022-09-21T20:40:30.052Z,102081.50
2022-09-21T20:42:58.360Z,102077.06
2022-09-21T20:45:25.832Z,102071.94
2022-09-21T20:47:54.839Z,102079.53
2022-09-21T20:50:23.560Z,102076.22
2022-09-21T20:52:50.696Z,102082.84
2022-09-21T20:55:20.225Z,102073.31
2022-09-21T20:57:47.816Z,102080.78
2022-09-21T21:00:16.606Z,102084.69
2022-09-21T21:02:43.865Z,102081.41
2022-09-21T21:05:11.377Z,102083.25
2022-09-21T21:07:42.347Z,102087.97
2022-09-21T21:10:13.395Z,102071.03
2022-09-21T21:12:44.393Z,102085.50
2022-09-21T21:15:12.557Z,102075.03
2022-09-21T21:17:41.158Z,102072.69
2022-09-21T21:20:09.747Z,102074.78
2022-09-21T21:22:37.033Z,102074.38
2022-09-21T21:25:04.789Z,102083.81
2022-09-21T21:27:31.996Z,102085.72
2022-09-21T21:30:00.197Z,102082.16
2022-09-21T21:32:28.218Z,102082.88
2022-09-21T21:34:55.899Z,102080.59
2022-09-21T21:37:25.434Z,102079.28
2022-09-21T21:39:54.031Z,102071.63
2022-09-21T21:42:21.817Z,102078.84
2022-09-21T21:44:52.155Z,102080.69
2022-09-21T21:50:06.612Z,102080.22
2022-09-21T21:52:34.269Z,102092.91
2022-09-21T21:55:02.282Z,102081.59
2022-09-21T21:57:29.216Z,102081.94
2022-09-21T21:59:56.185Z,102083.81
2022-09-21T22:02:23.852Z,102083.22
2022-09-21T22:04:50.857Z,102080.78
2022-09-21T22:07:17.735Z,102084.50
2022-09-21T22:09:44.719Z,102081.88
2022-09-21T22:12:11.893Z,102084.50
2022-09-21T22:14:39.046Z,102079.97
2022-09-21T22:17:05.956Z,102089.19
2022-09-21T22:19:32.979Z,102075.00
2022-09-21T22:22:00.125Z,102083.25
2022-09-21T22:24:27.187Z,102087.75
2022-09-21T22:26:54.085Z,102088.06
2022-09-21T22:29:21.102Z,102081.28
2022-09-21T22:31:50.555Z,102079.69
2022-09-21T22:34:17.715Z,102081.75
2022-09-21T22:36:45.000Z,102087.28
2022-09-21T22:39:12.850Z,102081.28
2022-09-21T22:41:42.225Z,102076.25
2022-09-21T22:44:10.231Z,102072.13
2022-09-21T22:46:37.959Z,102088.25
2022-09-21T22:49:05.406Z,102076.06
2022-09-21T22:51:32.835Z,102086.81
2022-09-21T22:54:01.444Z,102087.09
2022-09-21T22:56:31.728Z,102079.03
2022-09-21T22:59:00.721Z,102078.31
2022-09-21T23:01:39.060Z,102081.19
2022-09-21T23:04:12.855Z,102083.31
2022-09-21T23:06:43.554Z,102084.94
2022-09-21T23:09:18.457Z,102084.88
2022-09-21T23:11:48.620Z,102080.06
2022-09-21T23:14:16.890Z,102085.00
2022-09-21T23:16:44.971Z,102078.69
2022-09-21T23:19:15.791Z,102084.94
2022-09-21T23:21:51.500Z,102079.56
2022-09-21T23:24:19.691Z,102077.72
2022-09-21T23:26:47.510Z,102068.09
2022-09-21T23:29:15.526Z,102071.63
2022-09-21T23:31:45.558Z,102065.41
2022-09-21T23:34:13.652Z,102062.81
2022-09-21T23:36:41.641Z,102066.47
2022-09-21T23:39:12.057Z,102070.50
2022-09-21T23:41:39.578Z,102070.59
2022-09-21T23:44:06.829Z,102071.53
2022-09-21T23:46:37.098Z,102074.19
2022-09-21T23:49:05.031Z,102065.44
2022-09-21T23:51:32.009Z,102065.47
2022-09-21T23:53:59.759Z,102051.50
2022-09-21T23:56:28.406Z,102061.84
2022-09-21T23:58:56.001Z,102067.22
